Time;durP1;ratioP1;P1;durP2;ratioP2;P2;SDS_P1;SDS_P2;PMS_P1;PMS_P2;Temp;Humidity;BMP_temperature;BMP_pressure;BME280_temperature;BME280_humidity;BME280_pressure;Samples;Min_cycle;Max_cycle;Signal;HPM_P1;HPM_P2
2023/07/11 00:01:42;;;;;;;7.13;4.97;;;22.20;1.00;;;;;;5096858;28;20510;-47
2023/07/11 00:04:08;;;;;;;6.00;5.40;;;22.20;1.00;;;;;;5097715;28;20188;-47
2023/07/11 00:06:33;;;;;;;6.20;5.60;;;22.10;1.00;;;;;;5097157;28;20263;-50
2023/07/11 00:08:59;;;;;;;5.73;5.23;;;22.00;1.00;;;;;;5097564;28;20425;-48
2023/07/11 00:11:25;;;;;;;6.33;5.83;;;22.00;1.00;;;;;;5097454;28;20578;-52
2023/07/11 00:13:51;;;;;;;5.87;5.37;;;22.00;1.00;;;;;;5112170;28;20617;-47
2023/07/11 00:16:18;;;;;;;6.57;5.80;;;22.00;1.00;;;;;;5095835;28;20281;-48
2023/07/11 00:18:44;;;;;;;6.70;6.07;;;21.90;1.00;;;;;;5098045;28;20445;-49
2023/07/11 00:21:10;;;;;;;6.27;5.67;;;21.90;1.00;;;;;;5098446;28;20462;-49
2023/07/11 00:23:36;;;;;;;6.63;6.03;;;21.90;1.00;;;;;;5098127;28;20450;-47
2023/07/11 00:26:03;;;;;;;7.80;7.03;;;21.90;1.00;;;;;;5098343;28;20184;-49
2023/07/11 00:28:28;;;;;;;7.40;6.70;;;21.80;1.00;;;;;;5098176;28;20422;-50
2023/07/11 00:30:54;;;;;;;6.83;6.23;;;21.80;1.00;;;;;;5098057;28;20788;-48
2023/07/11 00:33:20;;;;;;;7.90;7.13;;;21.80;1.00;;;;;;5097707;28;20204;-52
2023/07/11 00:35:49;;;;;;;7.40;6.70;;;21.70;1.00;;;;;;5113957;28;20426;-48
2023/07/11 00:38:15;;;;;;;7.50;6.80;;;21.70;1.00;;;;;;5097967;28;20373;-47
2023/07/11 00:40:46;;;;;;;8.87;8.03;;;21.70;1.00;;;;;;5096791;28;20500;-50
2023/07/11 00:43:15;;;;;;;10.17;9.20;;;21.70;1.00;;;;;;5096620;28;20177;-47
2023/07/11 00:45:55;;;;;;;10.63;9.30;;;21.70;1.00;;;;;;5095269;28;20575;-48
2023/07/11 00:48:21;;;;;;;10.70;9.60;;;21.60;1.00;;;;;;5096548;28;20583;-48
2023/07/11 00:50:47;;;;;;;12.17;11.07;;;21.60;1.00;;;;;;5096935;28;20517;-50
2023/07/11 00:53:13;;;;;;;11.87;10.70;;;21.60;1.00;;;;;;5095727;28;20212;-49
2023/07/11 00:55:39;;;;;;;12.20;11.10;;;21.50;1.00;;;;;;5095688;28;20422;-49
2023/07/11 00:58:05;;;;;;;12.73;10.70;;;21.50;1.00;;;;;;5097639;28;20480;-48
2023/07/11 01:00:32;;;;;;;12.87;11.63;;;21.50;1.00;;;;;;5096332;28;20237;-50
2023/07/11 01:02:57;;;;;;;12.30;11.00;;;21.50;1.00;;;;;;5098277;28;20454;-48
2023/07/11 01:05:23;;;;;;;12.60;11.30;;;21.40;1.00;;;;;;5097999;28;20534;-49
2023/07/11 01:07:49;;;;;;;17.33;11.90;;;21.40;1.00;;;;;;5098104;28;20462;-46
2023/07/11 01:10:14;;;;;;;13.20;12.00;;;21.40;1.00;;;;;;5097836;28;20180;-47
2023/07/11 01:12:47;;;;;;;12.50;11.33;;;21.40;1.00;;;;;;5096704;28;20204;-47
2023/07/11 01:15:14;;;;;;;13.30;12.00;;;21.30;1.00;;;;;;5098195;28;20174;-49
2023/07/11 01:17:40;;;;;;;12.40;11.13;;;21.30;1.00;;;;;;5096897;28;20459;-46
2023/07/11 01:20:08;;;;;;;12.57;11.10;;;21.30;1.00;;;;;;5098081;28;20418;-48
2023/07/11 01:22:36;;;;;;;13.43;12.07;;;21.30;1.00;;;;;;5096986;28;20430;-47
2023/07/11 01:25:08;;;;;;;14.27;12.87;;;21.20;1.00;;;;;;5095312;28;20735;-47
2023/07/11 01:27:35;;;;;;;14.27;12.87;;;21.20;1.00;;;;;;5097044;28;20418;-48
2023/07/11 01:30:04;;;;;;;13.10;11.80;;;21.20;1.00;;;;;;5097354;28;20842;-47
2023/07/11 01:32:29;;;;;;;13.27;12.00;;;21.20;1.00;;;;;;5097368;28;20550;-48
2023/07/11 01:34:55;;;;;;;15.10;13.53;;;21.10;1.00;;;;;;5097459;28;20824;-50
2023/07/11 01:37:21;;;;;;;13.87;12.43;;;21.10;1.00;;;;;;5095727;28;20180;-48
2023/07/11 01:39:47;;;;;;;18.17;16.47;;;21.10;1.00;;;;;;5096101;28;20176;-48
2023/07/11 01:42:12;;;;;;;18.87;16.97;;;21.20;1.00;;;;;;5095886;28;20176;-47
2023/07/11 01:44:38;;;;;;;12.87;11.57;;;21.10;1.00;;;;;;5095182;28;20335;-48
2023/07/11 01:47:05;;;;;;;13.67;12.37;;;21.00;1.00;;;;;;5094654;28;20186;-48
2023/07/11 01:49:31;;;;;;;13.50;12.00;;;20.90;1.00;;;;;;5094674;28;20183;-48
2023/07/11 01:52:10;;;;;;;13.17;11.87;;;20.90;1.00;;;;;;5094752;28;20474;-47
2023/07/11 01:54:36;;;;;;;13.67;12.27;;;20.90;1.00;;;;;;5094792;28;20171;-46
2023/07/11 01:57:02;;;;;;;14.70;13.20;;;20.90;1.00;;;;;;5094350;28;20411;-49
2023/07/11 01:59:28;;;;;;;13.30;11.90;;;20.80;1.00;;;;;;5095842;28;20414;-50
2023/07/11 02:07:58;;;;;;;12.37;11.20;;;20.80;36.50;;;;;;5106675;28;20493;-49
2023/07/11 02:10:24;;;;;;;12.47;11.17;;;20.80;39.40;;;;;;5102067;28;20728;-48
2023/07/11 02:12:49;;;;;;;12.60;11.40;;;20.80;42.20;;;;;;5096501;28;20325;-49
2023/07/11 02:15:15;;;;;;;12.73;11.53;;;20.70;59.90;;;;;;5096816;28;20173;-49
2023/07/11 02:17:40;;;;;;;12.10;10.93;;;20.70;80.90;;;;;;5096819;28;20191;-46
2023/07/11 02:20:08;;;;;;;14.43;12.77;;;20.70;93.80;;;;;;5096723;28;20184;-48
2023/07/11 02:22:34;;;;;;;14.33;12.93;;;20.70;96.30;;;;;;5096844;28;20225;-50
2023/07/11 02:25:00;;;;;;;17.90;13.67;;;20.70;92.90;;;;;;5095313;28;20473;-47
2023/07/11 02:27:25;;;;;;;14.10;12.80;;;20.70;99.90;;;;;;5095161;28;20177;-46
2023/07/11 02:29:51;;;;;;;15.53;13.20;;;20.70;90.00;;;;;;5095124;28;20650;-50
2023/07/11 02:32:16;;;;;;;14.53;13.07;;;20.70;99.90;;;;;;5094697;28;20237;-49
2023/07/11 02:34:42;;;;;;;14.13;12.83;;;20.70;99.90;;;;;;5094885;28;20559;-47
2023/07/11 02:37:07;;;;;;;14.57;13.17;;;20.70;99.90;;;;;;5093698;28;20340;-48
2023/07/11 02:39:33;;;;;;;17.13;13.07;;;20.70;99.90;;;;;;5094674;28;20176;-46
2023/07/11 02:41:59;;;;;;;13.90;12.50;;;20.60;99.90;;;;;;5094835;28;20176;-48
2023/07/11 02:44:26;;;;;;;13.37;12.00;;;20.60;99.90;;;;;;5094458;28;20191;-51
2023/07/11 02:46:51;;;;;;;13.57;12.27;;;20.60;99.90;;;;;;5094612;28;20259;-46
2023/07/11 02:49:18;;;;;;;16.70;13.97;;;20.60;99.90;;;;;;5093953;28;20986;-47
2023/07/11 02:51:44;;;;;;;14.80;13.30;;;20.50;99.90;;;;;;5094132;28;20271;-47
2023/07/11 02:54:09;;;;;;;14.07;12.73;;;20.50;99.90;;;;;;5093197;28;20521;-48
2023/07/11 02:56:35;;;;;;;14.20;12.73;;;20.40;99.90;;;;;;5074880;28;20533;-48
2023/07/11 02:59:01;;;;;;;14.20;12.80;;;20.40;99.90;;;;;;5095063;28;20173;-46
2023/07/11 03:01:31;;;;;;;13.37;12.00;;;20.40;99.90;;;;;;5095595;28;20172;-48
2023/07/11 03:03:57;;;;;;;14.23;12.87;;;20.40;99.90;;;;;;5095083;28;20437;-49
2023/07/11 03:06:23;;;;;;;15.23;13.80;;;20.40;99.90;;;;;;5093485;28;20646;-47
2023/07/11 03:08:48;;;;;;;16.70;15.13;;;20.40;99.90;;;;;;5093764;28;20246;-46
2023/07/11 03:11:14;;;;;;;18.20;13.90;;;20.40;99.90;;;;;;5092427;28;20245;-47
2023/07/11 03:13:40;;;;;;;15.93;14.30;;;20.40;99.90;;;;;;5093094;28;20176;-47
2023/07/11 03:16:05;;;;;;;17.03;14.90;;;20.40;99.90;;;;;;5075030;28;20181;-49
2023/07/11 03:18:31;;;;;;;15.57;14.07;;;20.40;99.90;;;;;;5101413;28;20183;-48
2023/07/11 03:20:59;;;;;;;15.80;14.20;;;20.40;99.90;;;;;;5094593;28;20235;-47
2023/07/11 03:23:24;;;;;;;16.07;14.67;;;20.40;99.90;;;;;;5095157;28;20502;-45
2023/07/11 03:25:50;;;;;;;16.63;14.90;;;20.30;99.90;;;;;;5114802;28;20440;-49
2023/07/11 03:28:16;;;;;;;15.90;13.67;;;20.40;99.90;;;;;;5097804;28;20187;-49
2023/07/11 03:30:42;;;;;;;16.50;14.73;;;20.30;99.90;;;;;;5116250;28;20176;-50
2023/07/11 03:33:08;;;;;;;15.10;13.50;;;20.30;99.90;;;;;;5116369;28;20461;-48
2023/07/11 03:35:34;;;;;;;15.20;13.63;;;20.30;99.90;;;;;;5115202;28;20866;-49
2023/07/11 03:38:00;;;;;;;15.30;13.80;;;20.30;99.90;;;;;;5115586;28;20175;-50
2023/07/11 03:40:26;;;;;;;16.23;14.53;;;20.30;99.90;;;;;;5096465;28;20561;-48
2023/07/11 03:42:51;;;;;;;15.20;13.67;;;20.30;99.90;;;;;;5114119;28;20195;-46
2023/07/11 03:45:17;;;;;;;17.87;16.17;;;20.30;99.90;;;;;;5114781;28;20446;-50
2023/07/11 03:47:42;;;;;;;15.07;13.57;;;20.40;99.90;;;;;;5115319;28;20201;-52
2023/07/11 03:50:09;;;;;;;17.20;15.57;;;20.40;99.90;;;;;;5113982;28;20180;-47
2023/07/11 03:52:34;;;;;;;17.57;15.70;;;20.40;99.90;;;;;;5114878;28;20218;-50
2023/07/11 03:55:00;;;;;;;17.33;14.67;;;20.40;99.90;;;;;;5115424;28;20505;-46
2023/07/11 03:57:26;;;;;;;17.10;15.50;;;20.50;99.90;;;;;;5097758;28;20447;-48
2023/07/11 03:59:52;;;;;;;16.37;14.83;;;20.50;99.90;;;;;;5096161;28;20421;-48
2023/07/11 04:02:17;;;;;;;15.80;14.10;;;20.50;99.90;;;;;;5115468;28;20223;-52
2023/07/11 04:04:43;;;;;;;17.10;15.20;;;20.60;99.90;;;;;;5112570;28;20425;-52
2023/07/11 04:07:09;;;;;;;15.97;14.40;;;20.60;99.90;;;;;;5115730;28;20227;-52
2023/07/11 04:09:35;;;;;;;16.30;14.60;;;20.70;99.90;;;;;;5118470;28;20417;-52
2023/07/11 04:12:01;;;;;;;14.40;12.90;;;20.80;99.90;;;;;;5119384;28;20302;-51
2023/07/11 04:14:26;;;;;;;15.70;13.97;;;20.90;99.90;;;;;;5118369;28;20509;-51
2023/07/11 04:16:52;;;;;;;13.87;12.53;;;20.90;99.90;;;;;;5116378;28;20176;-53
2023/07/11 04:19:17;;;;;;;12.93;11.73;;;21.00;99.90;;;;;;5113753;28;20176;-50
2023/07/11 04:21:43;;;;;;;12.80;11.60;;;21.00;99.90;;;;;;5098424;28;20171;-49
2023/07/11 04:24:09;;;;;;;13.43;12.13;;;21.10;99.90;;;;;;5115509;28;20200;-53
2023/07/11 04:26:35;;;;;;;12.27;11.07;;;21.20;99.90;;;;;;5115530;28;20425;-51
2023/07/11 04:29:00;;;;;;;11.97;10.77;;;21.20;99.90;;;;;;5095656;28;20596;-52
2023/07/11 04:31:27;;;;;;;11.93;10.80;;;21.30;99.90;;;;;;5116654;28;20167;-52
2023/07/11 04:33:52;;;;;;;12.40;11.13;;;21.30;99.90;;;;;;5116848;28;20176;-53
2023/07/11 04:36:18;;;;;;;16.87;12.00;;;21.40;96.60;;;;;;5117110;28;20842;-49
2023/07/11 04:38:44;;;;;;;12.33;11.13;;;21.50;88.10;;;;;;5114278;28;20178;-54
2023/07/11 04:41:10;;;;;;;12.77;11.43;;;21.50;64.50;;;;;;5078944;28;20569;-52
2023/07/11 04:43:36;;;;;;;12.60;11.30;;;21.60;51.70;;;;;;5112510;28;20187;-51
2023/07/11 04:46:04;;;;;;;12.47;11.37;;;21.60;42.30;;;;;;5113998;28;20436;-50
2023/07/11 04:48:31;;;;;;;13.63;12.33;;;21.60;48.00;;;;;;5113740;28;20595;-53
2023/07/11 04:51:02;;;;;;;13.10;11.10;;;21.70;37.20;;;;;;5095719;28;20418;-54
2023/07/11 04:53:28;;;;;;;11.80;10.60;;;21.70;33.40;;;;;;5113814;28;20488;-50
2023/07/11 04:56:02;;;;;;;11.07;10.03;;;21.70;33.20;;;;;;5113740;28;20442;-51
2023/07/11 04:58:29;;;;;;;12.30;11.20;;;21.70;35.60;;;;;;5095558;28;20532;-51
2023/07/11 05:01:01;;;;;;;12.90;10.93;;;21.80;29.80;;;;;;5112113;28;20460;-51
2023/07/11 05:03:27;;;;;;;11.40;10.47;;;21.90;26.90;;;;;;5096216;28;20521;-52
2023/07/11 05:05:53;;;;;;;11.17;10.17;;;22.00;24.00;;;;;;5114224;28;20464;-50
2023/07/11 05:08:18;;;;;;;11.97;9.40;;;22.00;20.10;;;;;;5114097;28;20469;-50
2023/07/11 05:10:52;;;;;;;11.17;10.07;;;22.10;15.80;;;;;;5111907;28;20274;-50
2023/07/11 05:13:18;;;;;;;10.07;9.10;;;22.20;9.90;;;;;;5112347;28;20704;-53
2023/07/11 05:15:44;;;;;;;10.77;9.53;;;22.30;8.90;;;;;;5113202;28;20464;-54
2023/07/11 05:18:10;;;;;;;10.47;9.50;;;22.30;6.00;;;;;;5111634;28;20480;-53
2023/07/11 05:20:35;;;;;;;11.33;10.20;;;22.40;1.00;;;;;;5113993;28;20184;-51
2023/07/11 05:23:01;;;;;;;10.47;9.57;;;22.50;1.00;;;;;;5112827;28;20490;-52
2023/07/11 05:25:26;;;;;;;10.40;9.50;;;22.60;1.00;;;;;;5112546;28;20176;-51
2023/07/11 05:27:52;;;;;;;9.93;9.03;;;22.70;1.00;;;;;;5113903;28;21235;-53
2023/07/11 05:30:18;;;;;;;9.63;8.73;;;22.80;1.00;;;;;;5113378;28;20587;-51
2023/07/11 05:32:44;;;;;;;10.00;9.00;;;22.80;1.00;;;;;;5104718;28;20204;-54
2023/07/11 05:35:10;;;;;;;9.60;8.60;;;23.00;1.00;;;;;;5095468;28;20244;-52
2023/07/11 05:37:36;;;;;;;10.30;9.00;;;23.00;1.00;;;;;;5077436;28;21014;-52
2023/07/11 05:40:03;;;;;;;9.70;8.83;;;23.20;1.00;;;;;;5094813;28;20168;-53
2023/07/11 05:42:29;;;;;;;9.27;8.47;;;23.30;1.00;;;;;;5092460;28;20566;-50
2023/07/11 05:44:54;;;;;;;9.03;8.23;;;23.40;1.00;;;;;;5090732;28;20636;-50
2023/07/11 05:47:20;;;;;;;9.27;8.47;;;23.50;1.00;;;;;;5090212;28;20196;-55
2023/07/11 05:49:46;;;;;;;8.90;8.00;;;23.60;1.00;;;;;;5091354;28;20176;-51
2023/07/11 05:52:12;;;;;;;8.50;7.70;;;23.70;1.00;;;;;;5090759;28;20393;-53
2023/07/11 05:54:37;;;;;;;7.57;6.83;;;23.80;1.00;;;;;;5090003;28;20172;-52
2023/07/11 05:57:03;;;;;;;8.03;7.30;;;23.80;1.00;;;;;;5089610;28;20172;-50
2023/07/11 05:59:30;;;;;;;8.23;7.43;;;24.00;1.00;;;;;;5092918;28;20191;-53
2023/07/11 06:01:56;;;;;;;8.33;7.53;;;24.00;1.00;;;;;;5092719;28;20422;-54
2023/07/11 06:04:22;;;;;;;8.30;7.53;;;24.20;1.00;;;;;;5093996;28;20422;-51
2023/07/11 06:06:49;;;;;;;8.03;7.33;;;24.30;1.00;;;;;;5091178;28;20194;-52
2023/07/11 06:09:18;;;;;;;9.47;8.57;;;24.30;1.00;;;;;;5073134;28;20242;-49
2023/07/11 06:11:47;;;;;;;8.47;7.20;;;24.40;1.00;;;;;;5092844;28;20523;-50
2023/07/11 06:14:13;;;;;;;8.60;7.83;;;24.50;1.00;;;;;;5092138;28;20465;-52
2023/07/11 06:16:40;;;;;;;8.47;7.77;;;24.60;1.00;;;;;;5091857;28;20434;-51
2023/07/11 06:19:05;;;;;;;8.67;7.93;;;24.70;1.00;;;;;;5092673;28;20541;-53
2023/07/11 06:21:31;;;;;;;7.70;7.00;;;24.80;1.00;;;;;;5092770;28;20868;-50
2023/07/11 06:23:57;;;;;;;8.33;7.63;;;25.00;1.00;;;;;;5092778;28;20185;-52
2023/07/11 06:26:23;;;;;;;8.20;7.40;;;25.20;1.00;;;;;;5093844;28;20468;-52
2023/07/11 06:28:48;;;;;;;9.07;8.17;;;25.30;1.00;;;;;;5091392;28;20428;-50
2023/07/11 06:31:15;;;;;;;10.40;8.30;;;25.40;1.00;;;;;;5091817;28;20176;-54
2023/07/11 06:33:40;;;;;;;8.93;8.23;;;25.50;1.00;;;;;;5092698;28;20207;-49
2023/07/11 06:36:07;;;;;;;9.13;8.13;;;25.50;1.00;;;;;;5111267;28;20839;-48
2023/07/11 06:38:33;;;;;;;9.00;7.90;;;25.50;1.00;;;;;;5095851;28;20281;-51
2023/07/11 06:40:59;;;;;;;8.13;7.43;;;25.60;1.00;;;;;;5112215;28;20869;-50
2023/07/11 06:43:26;;;;;;;10.57;8.33;;;25.60;1.00;;;;;;5110143;28;20417;-50
2023/07/11 06:45:53;;;;;;;8.00;7.20;;;25.70;1.00;;;;;;5111991;28;20422;-51
2023/07/11 06:48:20;;;;;;;8.37;7.67;;;25.70;1.00;;;;;;5113506;28;20417;-51
2023/07/11 06:50:54;;;;;;;9.77;8.67;;;25.70;1.00;;;;;;5113396;28;20417;-51
2023/07/11 06:53:20;;;;;;;8.47;7.70;;;25.90;1.00;;;;;;5112718;28;20749;-53
2023/07/11 06:55:47;;;;;;;8.50;7.80;;;25.90;1.00;;;;;;5112278;28;20413;-49
2023/07/11 06:58:12;;;;;;;8.13;7.43;;;26.10;1.00;;;;;;5112265;28;20433;-49
2023/07/11 07:00:38;;;;;;;9.07;8.17;;;26.30;1.00;;;;;;5112870;28;20819;-50
2023/07/11 07:03:04;;;;;;;9.23;7.00;;;26.60;1.00;;;;;;5113326;28;20183;-49
2023/07/11 07:05:29;;;;;;;8.50;7.80;;;26.80;1.00;;;;;;5112615;28;20180;-51
2023/07/11 07:07:55;;;;;;;8.60;7.90;;;27.00;1.00;;;;;;5114306;28;20238;-47
2023/07/11 07:10:20;;;;;;;9.20;8.13;;;27.20;1.00;;;;;;5114007;28;20172;-50
2023/07/11 07:12:46;;;;;;;8.10;7.40;;;27.30;1.00;;;;;;5112942;28;20233;-50
2023/07/11 07:15:12;;;;;;;8.60;7.70;;;27.60;1.00;;;;;;5112918;28;20262;-49
2023/07/11 07:17:38;;;;;;;8.23;7.57;;;27.80;1.00;;;;;;5094607;28;20252;-47
2023/07/11 07:20:04;;;;;;;9.00;8.10;;;28.00;1.00;;;;;;5112390;28;20727;-48
2023/07/11 07:22:30;;;;;;;8.03;7.43;;;28.00;1.00;;;;;;5113260;28;20469;-47
2023/07/11 07:24:56;;;;;;;8.47;7.77;;;27.90;1.00;;;;;;5113292;28;20429;-48
2023/07/11 07:27:22;;;;;;;9.40;8.70;;;28.00;1.00;;;;;;5078163;28;20175;-48
2023/07/11 07:29:48;;;;;;;8.37;7.67;;;28.10;1.00;;;;;;5073380;28;20472;-50
2023/07/11 07:32:13;;;;;;;8.77;7.97;;;28.10;1.00;;;;;;5091221;28;20602;-50
2023/07/11 07:34:39;;;;;;;9.13;8.37;;;28.20;1.00;;;;;;5092247;28;20532;-50
2023/07/11 07:37:05;;;;;;;8.83;8.17;;;28.40;1.00;;;;;;5073506;28;20271;-51
2023/07/11 07:39:30;;;;;;;8.43;7.70;;;28.50;1.00;;;;;;5090015;28;20176;-53
2023/07/11 07:41:56;;;;;;;9.27;8.47;;;28.60;1.00;;;;;;5091166;28;20184;-52
2023/07/11 07:44:21;;;;;;;9.20;8.40;;;28.70;1.00;;;;;;5091051;28;20675;-50
2023/07/11 07:46:47;;;;;;;8.30;7.60;;;28.60;1.00;;;;;;5094685;28;20321;-50
2023/07/11 07:49:13;;;;;;;8.37;7.67;;;28.70;1.00;;;;;;5094303;28;20472;-47
2023/07/11 07:51:39;;;;;;;8.20;7.50;;;28.90;1.00;;;;;;5091938;28;20168;-48
2023/07/11 07:54:04;;;;;;;8.33;7.60;;;29.30;1.00;;;;;;5092842;28;20172;-48
2023/07/11 07:56:30;;;;;;;9.13;8.33;;;29.60;1.00;;;;;;5092919;28;20215;-52
2023/07/11 07:58:55;;;;;;;8.63;7.90;;;30.00;1.00;;;;;;5093750;28;20334;-52
2023/07/11 08:01:21;;;;;;;8.63;7.80;;;30.30;1.00;;;;;;5094970;28;20176;-48
2023/07/11 08:03:47;;;;;;;8.40;7.70;;;30.50;1.00;;;;;;5095071;28;20510;-51
2023/07/11 08:06:14;;;;;;;8.17;7.40;;;30.70;1.00;;;;;;5093012;28;20176;-49
2023/07/11 08:08:40;;;;;;;9.07;8.17;;;30.90;1.00;;;;;;5091597;28;20216;-50
2023/07/11 08:11:06;;;;;;;8.70;8.00;;;31.10;1.00;;;;;;5092528;28;20487;-50
2023/07/11 08:13:34;;;;;;;8.60;7.90;;;31.40;1.00;;;;;;5092671;28;20520;-51
2023/07/11 08:16:00;;;;;;;8.47;7.77;;;31.60;1.00;;;;;;5087448;28;20422;-49
2023/07/11 08:18:26;;;;;;;9.67;8.67;;;31.80;1.00;;;;;;5095450;28;20402;-51
2023/07/11 08:20:51;;;;;;;9.00;8.10;;;31.80;1.00;;;;;;5097277;28;20397;-48
2023/07/11 08:23:17;;;;;;;9.27;8.30;;;31.90;1.00;;;;;;5096137;28;20180;-48
2023/07/11 08:25:43;;;;;;;9.30;8.60;;;32.00;1.00;;;;;;5095149;28;20432;-46
2023/07/11 08:28:08;;;;;;;9.93;9.23;;;32.20;1.00;;;;;;5074887;28;20428;-49
2023/07/11 08:30:35;;;;;;;9.00;8.30;;;31.90;1.00;;;;;;5092471;28;20176;-49
2023/07/11 08:33:01;;;;;;;9.10;8.40;;;31.60;1.00;;;;;;5091235;28;20200;-51
2023/07/11 08:35:27;;;;;;;9.90;9.10;;;31.60;1.00;;;;;;5093736;28;20825;-48
2023/07/11 08:37:52;;;;;;;8.73;7.83;;;31.60;1.00;;;;;;5092962;28;20447;-47
2023/07/11 08:40:22;;;;;;;9.53;8.73;;;31.70;1.00;;;;;;5092533;28;20188;-52
2023/07/11 08:42:48;;;;;;;9.17;8.30;;;31.80;1.00;;;;;;5093081;28;20173;-50
2023/07/11 08:45:19;;;;;;;10.10;9.10;;;31.90;1.00;;;;;;5094154;28;20527;-51
2023/07/11 08:47:59;;;;;;;8.80;8.20;;;31.80;1.00;;;;;;5094611;28;20411;-49
2023/07/11 08:50:33;;;;;;;9.30;8.50;;;31.90;1.00;;;;;;5093443;28;20494;-49
2023/07/11 08:53:06;;;;;;;9.57;8.67;;;32.00;1.00;;;;;;5075486;28;20546;-49
2023/07/11 08:55:34;;;;;;;11.70;10.60;;;32.10;1.00;;;;;;5076853;28;20492;-49
2023/07/11 08:58:02;;;;;;;10.87;9.97;;;32.00;1.00;;;;;;5076700;28;20844;-51
2023/07/11 09:00:29;;;;;;;9.00;8.30;;;31.70;1.00;;;;;;5060859;28;20392;-53
2023/07/11 09:03:04;;;;;;;9.50;8.70;;;31.70;1.00;;;;;;5096021;28;20468;-50
2023/07/11 09:05:37;;;;;;;11.20;9.50;;;31.50;1.00;;;;;;5060951;28;20427;-49
2023/07/11 09:08:03;;;;;;;9.50;8.80;;;31.70;1.00;;;;;;5096608;28;20445;-48
2023/07/11 09:10:58;;;;;;;9.43;8.63;;;31.70;1.00;;;;;;5096591;28;20683;-49
2023/07/11 09:13:47;;;;;;;9.57;8.77;;;32.30;1.00;;;;;;5097412;28;20474;-48
2023/07/11 09:16:35;;;;;;;9.77;8.97;;;32.60;1.00;;;;;;5096162;28;20428;-48
2023/07/11 09:19:25;;;;;;;9.97;9.07;;;32.60;1.00;;;;;;5101958;28;20407;-48
2023/07/11 09:22:00;;;;;;;10.03;8.60;;;32.80;1.00;;;;;;5084057;28;20805;-49
2023/07/11 09:24:50;;;;;;;10.87;10.00;;;32.50;1.00;;;;;;5115462;28;20838;-51
2023/07/11 09:27:25;;;;;;;10.23;9.30;;;32.50;1.00;;;;;;5117399;28;20682;-50
2023/07/11 09:29:52;;;;;;;9.20;8.50;;;32.70;1.00;;;;;;5116707;28;20450;-49
2023/07/11 09:32:18;;;;;;;10.03;9.13;;;33.00;1.00;;;;;;5098208;28;20776;-51
2023/07/11 09:34:48;;;;;;;10.40;9.60;;;33.40;1.00;;;;;;5115797;28;20407;-48
2023/07/11 09:37:41;;;;;;;9.77;8.97;;;34.00;1.00;;;;;;5115571;28;20396;-51
2023/07/11 09:40:34;;;;;;;9.73;8.83;;;34.50;1.00;;;;;;5080406;28;20972;-50
2023/07/11 09:43:01;;;;;;;10.33;9.40;;;34.30;1.00;;;;;;5079582;28;20423;-50
2023/07/11 09:45:35;;;;;;;9.27;8.33;;;34.00;1.00;;;;;;5080329;28;20396;-48
2023/07/11 09:48:17;;;;;;;9.60;8.73;;;34.20;1.00;;;;;;5095943;28;20526;-47
2023/07/11 09:50:48;;;;;;;9.30;8.50;;;34.10;1.00;;;;;;5111779;28;20400;-50
2023/07/11 09:53:17;;;;;;;8.87;8.20;;;34.20;1.00;;;;;;5095065;28;20493;-48
2023/07/11 09:55:43;;;;;;;10.20;8.93;;;34.40;1.00;;;;;;5112284;28;20424;-49
2023/07/11 09:58:16;;;;;;;9.40;8.70;;;34.80;1.00;;;;;;5112361;28;20404;-47
2023/07/11 10:01:02;;;;;;;10.00;9.00;;;35.20;1.00;;;;;;5113981;28;20494;-50
2023/07/11 10:03:30;;;;;;;9.73;8.87;;;35.50;1.00;;;;;;5097542;28;20432;-51
2023/07/11 10:05:56;;;;;;;9.70;8.70;;;35.50;1.00;;;;;;5113525;28;20396;-50
2023/07/11 10:08:23;;;;;;;9.83;8.93;;;35.50;1.00;;;;;;5112868;28;20443;-49
2023/07/11 10:10:54;;;;;;;10.07;9.23;;;35.50;1.00;;;;;;5112907;28;20586;-50
2023/07/11 10:13:21;;;;;;;10.10;9.20;;;35.80;1.00;;;;;;5112959;28;20789;-47
2023/07/11 10:15:55;;;;;;;10.33;9.33;;;35.70;1.00;;;;;;5111917;28;20413;-48
2023/07/11 10:18:23;;;;;;;9.80;8.90;;;35.10;1.00;;;;;;5111851;28;20409;-49
2023/07/11 10:20:58;;;;;;;11.30;10.37;;;34.80;1.00;;;;;;5094582;28;20400;-48
2023/07/11 10:23:25;;;;;;;10.10;9.20;;;35.20;1.00;;;;;;5114804;28;20444;-48
2023/07/11 10:25:52;;;;;;;10.27;9.57;;;35.60;1.00;;;;;;5094486;28;20561;-50
2023/07/11 10:28:34;;;;;;;10.13;9.23;;;36.00;1.00;;;;;;5111905;28;20874;-49
2023/07/11 10:31:14;;;;;;;9.90;9.00;;;36.70;1.00;;;;;;5094167;28;20522;-52
2023/07/11 10:33:58;;;;;;;11.10;9.00;;;37.40;1.00;;;;;;5110629;28;20451;-48
2023/07/11 10:36:35;;;;;;;10.07;9.30;;;37.90;1.00;;;;;;5111702;28;20414;-52
2023/07/11 10:39:04;;;;;;;10.33;9.43;;;37.80;1.00;;;;;;5094432;28;20838;-51
2023/07/11 10:41:46;;;;;;;10.33;9.60;;;37.10;1.00;;;;;;5095015;28;20879;-52
2023/07/11 10:44:19;;;;;;;11.33;10.40;;;37.00;1.00;;;;;;5113454;28;20496;-50
2023/07/11 10:46:49;;;;;;;10.43;9.63;;;37.40;1.00;;;;;;5096049;28;20428;-51
2023/07/11 10:49:25;;;;;;;10.20;9.30;;;36.80;1.00;;;;;;5095351;28;20783;-49
2023/07/11 10:52:04;;;;;;;11.37;10.47;;;36.00;1.00;;;;;;5095211;28;20430;-52
2023/07/11 10:54:44;;;;;;;11.93;11.03;;;36.20;1.00;;;;;;5096517;28;20814;-53
2023/07/11 10:57:16;;;;;;;10.73;9.93;;;36.00;1.00;;;;;;5113699;28;20966;-53
2023/07/11 10:59:41;;;;;;;10.80;9.87;;;35.60;1.00;;;;;;5111264;28;20409;-53
2023/07/11 11:02:15;;;;;;;10.87;10.00;;;36.10;1.00;;;;;;5111418;28;20445;-54
2023/07/11 11:05:18;;;;;;;12.10;11.20;;;36.40;1.00;;;;;;5094366;28;20227;-53
2023/07/11 11:07:52;;;;;;;10.43;9.53;;;36.40;1.00;;;;;;5095456;28;20463;-48
2023/07/11 11:10:55;;;;;;;11.57;10.57;;;36.40;1.00;;;;;;5095942;28;20729;-53
2023/07/11 11:13:33;;;;;;;10.30;9.40;;;36.40;1.00;;;;;;5105204;28;20794;-52
2023/07/11 11:16:14;;;;;;;11.60;10.70;;;35.70;1.00;;;;;;5093478;28;20805;-51
2023/07/11 11:18:58;;;;;;;10.10;9.20;;;35.30;1.00;;;;;;5114811;28;20499;-52
2023/07/11 11:21:38;;;;;;;11.13;10.30;;;35.40;1.00;;;;;;5114927;28;20380;-48
2023/07/11 11:24:42;;;;;;;10.47;9.57;;;36.20;1.00;;;;;;5096907;28;20482;-51
2023/07/11 11:27:43;;;;;;;11.40;10.50;;;36.10;1.00;;;;;;5097385;28;20425;-49
2023/07/11 11:30:27;;;;;;;11.53;10.43;;;36.40;1.00;;;;;;5113885;28;20660;-49
2023/07/11 11:33:33;;;;;;;11.37;10.37;;;35.30;1.00;;;;;;5112933;28;20759;-49
2023/07/11 11:36:20;;;;;;;11.00;10.20;;;34.40;1.00;;;;;;5095125;28;20422;-53
2023/07/11 11:38:51;;;;;;;10.77;9.87;;;34.90;1.00;;;;;;5096580;28;20401;-47
2023/07/11 11:41:21;;;;;;;10.83;10.00;;;35.80;1.00;;;;;;5113437;28;20425;-51
2023/07/11 11:43:48;;;;;;;10.50;9.53;;;36.60;1.00;;;;;;5114348;28;20739;-50
2023/07/11 11:46:14;;;;;;;11.13;10.13;;;37.30;1.00;;;;;;5114595;28;20439;-51
2023/07/11 11:48:40;;;;;;;11.00;10.20;;;36.80;1.00;;;;;;5097300;28;20392;-50
2023/07/11 11:51:09;;;;;;;11.13;10.27;;;36.10;1.00;;;;;;5097965;28;20428;-51
2023/07/11 11:53:44;;;;;;;11.93;10.87;;;35.70;1.00;;;;;;5078065;28;20956;-50
2023/07/11 11:56:18;;;;;;;10.90;10.00;;;35.10;1.00;;;;;;5079114;28;20440;-51
2023/07/11 11:58:57;;;;;;;11.00;10.10;;;34.50;1.00;;;;;;5077876;28;20677;-51
2023/07/11 12:01:33;;;;;;;10.40;9.60;;;34.60;1.00;;;;;;5096326;28;21036;-50
2023/07/11 12:03:59;;;;;;;10.70;9.87;;;35.50;1.00;;;;;;5114522;28;20651;-49
2023/07/11 12:06:34;;;;;;;10.27;9.37;;;36.30;1.00;;;;;;5096580;28;20422;-51
2023/07/11 12:09:44;;;;;;;10.63;9.70;;;36.70;1.00;;;;;;5114685;28;20227;-51
2023/07/11 12:12:13;;;;;;;10.80;9.90;;;37.40;1.00;;;;;;5097140;28;20452;-50
2023/07/11 12:14:53;;;;;;;12.67;11.57;;;37.90;1.00;;;;;;5118549;28;20463;-50
2023/07/11 12:17:45;;;;;;;11.87;9.73;;;37.50;1.00;;;;;;5100357;28;20494;-51
2023/07/11 12:20:14;;;;;;;10.50;9.40;;;38.10;1.00;;;;;;5112924;28;20430;-50
2023/07/11 12:22:40;;;;;;;10.33;9.33;;;38.00;1.00;;;;;;5080473;28;20524;-50
2023/07/11 12:25:05;;;;;;;10.97;10.07;;;37.50;1.00;;;;;;5098977;28;20602;-51
2023/07/11 12:27:31;;;;;;;10.30;9.30;;;37.30;1.00;;;;;;5114099;28;20187;-50
2023/07/11 12:30:02;;;;;;;10.50;9.70;;;37.70;1.00;;;;;;5113733;28;20175;-49
2023/07/11 12:32:31;;;;;;;10.80;10.00;;;37.40;1.00;;;;;;5098354;28;20269;-50
2023/07/11 12:35:05;;;;;;;9.27;8.57;;;37.10;1.00;;;;;;5116683;28;20406;-52
2023/07/11 12:37:55;;;;;;;10.77;9.77;;;37.20;1.00;;;;;;5096452;28;20407;-52
2023/07/11 12:40:45;;;;;;;9.87;9.07;;;36.80;1.00;;;;;;5054907;28;20418;-51
2023/07/11 12:43:24;;;;;;;9.70;8.80;;;36.60;1.00;;;;;;5113467;28;20517;-52
2023/07/11 12:45:56;;;;;;;10.73;9.83;;;37.10;1.00;;;;;;5096227;28;20448;-52
2023/07/11 12:48:34;;;;;;;9.97;8.90;;;37.10;1.00;;;;;;5095262;28;20388;-49
2023/07/11 12:51:06;;;;;;;10.33;9.53;;;37.00;1.00;;;;;;5096514;28;20474;-51
2023/07/11 12:53:38;;;;;;;11.17;10.07;;;37.00;1.00;;;;;;5095068;28;20571;-50
2023/07/11 12:56:12;;;;;;;9.50;8.80;;;37.50;1.00;;;;;;5117178;28;20421;-50
2023/07/11 12:58:40;;;;;;;10.40;9.60;;;37.80;1.00;;;;;;5098048;28;20414;-52
2023/07/11 13:01:15;;;;;;;9.67;8.87;;;37.50;1.00;;;;;;5115971;28;20489;-52